Briefing drone pour Le puy-en-velay (LFHP)

Rechercher une autre localisation

Conditions de vol :


Nous sommes le : Mercredi 25 mai 2022
Il est 13:22 UTC (15:22 LT)

Lever de soleil : 03:39 UTC (05:39 LT)
Coucher de soleil : 19:43 UTC (21:43 LT)

Météo

L'essentiel des conditions de vol

VIGILANCE MÉTÉO FRANCE - Haute-Loire (43)
Pas de vigilances particulieres
METAR de LFHP
LFHP 191900Z AUTO 11003KT 050V220 CAVOK 20/09 Q1024

Date d'émission: 19/05/2022
Heure d'émission: 19:00 UTC
Vent: 110° (variable du 050° au 220°) pour 3 KT (6 km/h)
Visibilité horizontale: > 10 km
Plafond : Plafond et visibilité OK (CAVOK)
Température: 20 °C
Point de rosée: 9 °C
Humidité: 49%
Pression (QNH): 1024 hPa
Prévision 24h pour Le puy-en-velay
Vent : 13° pour 4 KT (13 km/h)
Temperature Maxi: 17 °C
Temperature Min: 17 °C
Humidité : 55%
Condition : Peu nuageux



Warning: count(): Parameter must be an array or an object that implements Countable in /homepages/6/d509196549/htdocs/droneoxygene/briefing.php on line 743
WEBCAM POUR LE PUY-EN-VELAY

Réglementation

Voler en sécurité

CARTES AERONAUTIQUE 1/500.000
CARTES VAC (LFHP)
SUP AIP




Chargement des AIP...
NOTAM (LE PUY-EN-VELAY + Terrain à proximité / FIR )




Chargement des NOTAMS...
CONTACT PREFECTURE 43


Avertissement : Les données mises à disposition sont indicatives. Oxygène Drone ne pourra être tenu responsable de dégâts causés aux biens et aux personnes.